createdAt,value
2023-04-02T00:01:47.299Z,2.27
2023-04-02T00:04:23.020Z,2.17
2023-04-02T00:06:54.851Z,2.00
2023-04-02T00:09:29.824Z,1.20
2023-04-02T00:12:00.262Z,2.00
2023-04-02T00:14:33.527Z,1.97
2023-04-02T00:17:03.402Z,2.20
2023-04-02T00:19:36.120Z,2.37
2023-04-02T00:22:08.603Z,2.23
2023-04-02T00:24:39.440Z,1.40
2023-04-02T00:27:11.796Z,1.93
2023-04-02T00:29:48.539Z,2.47
2023-04-02T00:32:22.418Z,2.10
2023-04-02T00:34:51.547Z,2.07
2023-04-02T00:37:23.961Z,2.27
2023-04-02T00:39:57.373Z,2.97
2023-04-02T00:42:26.206Z,1.60
2023-04-02T00:44:55.981Z,2.40
2023-04-02T00:47:27.005Z,1.57
2023-04-02T00:50:00.430Z,2.37
2023-04-02T00:52:33.084Z,2.00
2023-04-02T00:55:07.515Z,1.77
2023-04-02T00:57:36.741Z,2.60
2023-04-02T01:00:21.392Z,1.63
2023-04-02T01:03:38.127Z,1.80
2023-04-02T01:06:11.830Z,1.97
2023-04-02T01:08:52.657Z,2.33
2023-04-02T01:11:39.585Z,1.37
2023-04-02T01:14:18.805Z,1.43
2023-04-02T01:16:56.522Z,2.00
2023-04-02T01:19:55.195Z,1.20
2023-04-02T01:22:31.005Z,1.40
2023-04-02T01:24:59.426Z,1.83
2023-04-02T01:27:31.130Z,1.93
2023-04-02T01:30:03.642Z,0.93
2023-04-02T01:32:32.617Z,3.10
2023-04-02T01:35:01.256Z,4.73
2023-04-02T01:37:38.529Z,5.53
2023-04-02T01:40:21.457Z,4.20
2023-04-02T01:42:58.968Z,5.27
2023-04-02T01:45:28.784Z,2.37
2023-04-02T01:47:57.450Z,4.27
2023-04-02T01:50:32.109Z,5.13
2023-04-02T01:53:03.466Z,4.73
2023-04-02T01:55:36.429Z,4.40
2023-04-02T01:58:05.664Z,3.30
2023-04-02T02:00:37.606Z,4.63
2023-04-02T02:03:08.477Z,7.07
2023-04-02T02:05:37.439Z,5.97
2023-04-02T02:08:08.738Z,6.00
2023-04-02T02:10:40.146Z,5.13
2023-04-02T02:13:08.174Z,4.17
2023-04-02T02:15:37.870Z,6.00
2023-04-02T02:18:07.525Z,4.70
2023-04-02T02:20:36.553Z,5.03
2023-04-02T02:23:05.500Z,4.10
2023-04-02T02:25:37.087Z,4.83
2023-04-02T02:28:08.864Z,23.80
2023-04-02T02:30:41.707Z,11.80
2023-04-02T02:33:17.276Z,7.67
2023-04-02T02:35:54.176Z,15.23
2023-04-02T02:38:54.657Z,8.30
2023-04-02T02:41:34.627Z,7.13
2023-04-02T02:44:07.069Z,23.93
2023-04-02T02:46:39.334Z,21.77
2023-04-02T02:49:16.086Z,11.77
2023-04-02T02:51:49.218Z,8.23
2023-04-02T02:54:22.558Z,6.10
2023-04-02T02:56:55.414Z,6.00
2023-04-02T02:59:24.815Z,4.00
2023-04-02T03:01:54.811Z,4.53
2023-04-02T03:04:24.893Z,3.60
2023-04-02T03:06:58.948Z,4.27
2023-04-02T03:09:37.857Z,3.77
2023-04-02T03:12:13.124Z,4.03
2023-04-02T03:14:47.178Z,4.40
2023-04-02T03:17:20.342Z,5.30
2023-04-02T03:19:54.476Z,5.07
2023-04-02T03:22:31.950Z,4.10
2023-04-02T03:25:06.106Z,3.87
2023-04-02T03:27:38.298Z,3.73
2023-04-02T03:30:27.863Z,3.30
2023-04-02T03:33:04.322Z,4.23
2023-04-02T03:35:37.468Z,3.77
2023-04-02T03:38:12.566Z,3.30
2023-04-02T03:40:44.472Z,2.63
2023-04-02T03:43:17.825Z,3.87
2023-04-02T03:45:52.736Z,4.00
2023-04-02T03:48:28.673Z,4.30
2023-04-02T03:51:02.062Z,3.80
2023-04-02T03:53:32.419Z,3.87
2023-04-02T03:56:02.703Z,1.80
2023-04-02T03:58:38.202Z,1.00
2023-04-02T04:01:12.480Z,0.47
2023-04-02T04:03:45.698Z,0.87
2023-04-02T04:06:21.319Z,0.37
2023-04-02T04:08:54.761Z,1.23
2023-04-02T04:11:31.542Z,0.40
2023-04-02T04:14:04.248Z,0.30
2023-04-02T04:16:36.266Z,0.97
2023-04-02T04:19:12.340Z,0.27
2023-04-02T04:21:45.031Z,0.10
2023-04-02T04:24:23.215Z,0.40
2023-04-02T04:27:04.057Z,0.77
2023-04-02T04:29:45.673Z,0.27
2023-04-02T04:32:27.292Z,0.40
2023-04-02T04:35:06.314Z,0.10
2023-04-02T04:37:38.656Z,0.17
2023-04-02T04:40:17.539Z,0.20
2023-04-02T04:42:49.108Z,0.10
2023-04-02T04:45:37.754Z,0.20
2023-04-02T04:48:10.662Z,0.10
2023-04-02T04:50:50.338Z,0.10
2023-04-02T04:53:23.596Z,0.20
2023-04-02T04:55:59.714Z,0.20
2023-04-02T04:58:44.446Z,1.50
2023-04-02T05:01:18.123Z,0.30
2023-04-02T05:03:52.422Z,0.20
2023-04-02T05:06:35.849Z,0.30
2023-04-02T05:09:13.712Z,0.33
2023-04-02T05:11:46.913Z,0.20
2023-04-02T05:14:23.574Z,0.30
2023-04-02T05:16:57.307Z,0.20
2023-04-02T05:19:33.786Z,0.53
2023-04-02T05:22:13.812Z,0.10
2023-04-02T05:24:49.691Z,0.13
2023-04-02T05:27:27.274Z,0.17
2023-04-02T05:30:04.074Z,0.43
2023-04-02T05:32:36.378Z,0.20
2023-04-02T05:35:06.826Z,1.10
2023-04-02T05:37:41.574Z,0.40
2023-04-02T05:40:16.078Z,0.37
2023-04-02T05:42:49.460Z,0.10
2023-04-02T05:45:24.933Z,0.40
2023-04-02T05:47:59.788Z,0.20
2023-04-02T05:50:37.502Z,0.23
2023-04-02T05:53:14.868Z,0.20
2023-04-02T05:55:53.847Z,0.30
2023-04-02T05:58:36.057Z,0.23
2023-04-02T06:01:33.612Z,0.20
2023-04-02T06:04:14.131Z,0.20
2023-04-02T06:06:59.572Z,0.30
2023-04-02T06:09:38.805Z,0.60
2023-04-02T06:12:28.298Z,0.20
2023-04-02T06:14:56.902Z,0.13
2023-04-02T06:17:29.092Z,0.97
2023-04-02T06:20:00.580Z,0.10
2023-04-02T06:22:36.545Z,0.10
2023-04-02T06:25:12.578Z,0.40
2023-04-02T06:27:44.958Z,0.10
2023-04-02T06:30:18.653Z,0.70
2023-04-02T06:32:50.068Z,0.10
2023-04-02T06:35:19.484Z,0.30
2023-04-02T06:38:00.119Z,0.10
2023-04-02T06:40:40.225Z,0.40
2023-04-02T06:43:20.230Z,0.60
2023-04-02T06:46:00.803Z,0.13
2023-04-02T06:48:37.067Z,0.43
2023-04-02T06:51:08.188Z,0.20
2023-04-02T06:53:40.696Z,0.53
2023-04-02T06:56:22.128Z,0.20
2023-04-02T06:58:50.669Z,0.30
2023-04-02T07:01:25.012Z,0.10
2023-04-02T07:03:53.518Z,0.30
2023-04-02T07:06:36.228Z,0.60
2023-04-02T07:09:06.857Z,0.20
2023-04-02T07:11:38.523Z,0.30
2023-04-02T07:14:07.984Z,2.43
2023-04-02T07:16:36.659Z,1.77
2023-04-02T07:19:05.555Z,1.10
2023-04-02T07:21:36.716Z,0.93
2023-04-02T07:24:04.927Z,1.10
2023-04-02T07:26:33.024Z,1.40
2023-04-02T07:29:02.254Z,1.03
2023-04-02T07:31:30.311Z,0.70
2023-04-02T07:34:00.561Z,0.67
2023-04-02T07:36:30.277Z,0.43
2023-04-02T07:38:58.190Z,0.43
2023-04-02T07:41:27.715Z,0.60
2023-04-02T07:43:55.578Z,0.40
2023-04-02T07:46:26.052Z,0.30
2023-04-02T07:48:54.088Z,0.30
2023-04-02T07:51:23.690Z,0.50
2023-04-02T07:53:56.394Z,0.80
2023-04-02T07:56:25.906Z,0.90
2023-04-02T07:58:53.920Z,0.80
2023-04-02T08:01:25.759Z,0.80
2023-04-02T08:03:56.120Z,0.43
2023-04-02T08:06:25.689Z,0.40
2023-04-02T08:08:53.996Z,0.37
2023-04-02T08:11:22.020Z,0.70
2023-04-02T08:13:49.907Z,0.80
2023-04-02T08:16:18.171Z,0.43
2023-04-02T08:18:47.458Z,0.93
2023-04-02T08:21:17.032Z,1.30
2023-04-02T08:23:45.277Z,0.50
2023-04-02T08:26:18.637Z,0.47
2023-04-02T08:28:46.651Z,1.50
2023-04-02T08:31:14.742Z,1.20
2023-04-02T08:33:42.659Z,0.87
2023-04-02T08:36:18.144Z,0.40
2023-04-02T08:38:46.842Z,1.67
2023-04-02T08:41:23.278Z,2.47
2023-04-02T08:44:05.360Z,0.53
2023-04-02T08:46:39.742Z,0.90
2023-04-02T08:49:14.154Z,1.00
2023-04-02T08:51:43.828Z,1.00
2023-04-02T08:54:19.630Z,2.27
2023-04-02T08:56:53.276Z,1.13
2023-04-02T08:59:31.842Z,1.30
2023-04-02T09:02:08.072Z,1.27
2023-04-02T09:04:36.852Z,1.00
2023-04-02T09:07:06.284Z,1.10
2023-04-02T09:09:38.782Z,1.53
2023-04-02T09:12:16.153Z,1.30
2023-04-02T09:14:45.893Z,1.50
2023-04-02T09:17:19.280Z,1.80
2023-04-02T09:19:55.349Z,1.73
2023-04-02T09:22:26.850Z,1.40
2023-04-02T09:24:57.278Z,2.00
2023-04-02T09:27:27.201Z,2.23
2023-04-02T09:30:01.010Z,2.00
2023-04-02T09:32:42.892Z,2.70
2023-04-02T09:35:25.430Z,1.13
2023-04-02T09:38:21.423Z,1.30
2023-04-02T09:40:58.561Z,1.67
2023-04-02T09:43:28.037Z,1.67
2023-04-02T09:46:02.123Z,1.20
2023-04-02T09:48:32.749Z,1.00
2023-04-02T09:51:13.386Z,2.00
2023-04-02T09:53:45.881Z,1.50
2023-04-02T09:56:16.929Z,1.80
2023-04-02T09:58:46.155Z,1.90
2023-04-02T10:01:32.398Z,1.07
2023-04-02T10:04:00.648Z,1.60
2023-04-02T10:06:30.056Z,1.20
2023-04-02T10:08:59.864Z,1.33
2023-04-02T10:11:43.635Z,1.77
2023-04-02T10:14:19.594Z,2.30
2023-04-02T10:16:51.499Z,1.87
2023-04-02T10:19:26.461Z,1.80
2023-04-02T10:21:56.420Z,2.37
2023-04-02T10:24:28.909Z,1.53
2023-04-02T10:27:09.556Z,2.00
2023-04-02T10:29:52.768Z,2.30
2023-04-02T10:32:24.738Z,1.90
2023-04-02T10:34:59.799Z,2.30
2023-04-02T10:37:50.082Z,1.67
2023-04-02T10:40:25.739Z,2.50
2023-04-02T10:43:07.131Z,1.57
2023-04-02T10:45:43.156Z,1.60
2023-04-02T10:48:21.550Z,3.23
2023-04-02T10:50:56.089Z,1.40
2023-04-02T10:53:33.294Z,1.80
2023-04-02T10:56:08.711Z,1.20
2023-04-02T10:58:41.651Z,1.27
2023-04-02T11:01:16.967Z,1.87
2023-04-02T11:06:21.224Z,2.13
2023-04-02T11:08:51.867Z,2.60
2023-04-02T11:11:24.485Z,2.17
2023-04-02T11:13:58.293Z,2.10
2023-04-02T11:16:27.438Z,2.13
2023-04-02T11:19:27.668Z,1.97
2023-04-02T11:21:59.398Z,1.83
2023-04-02T11:24:38.635Z,2.10
2023-04-02T11:27:17.908Z,1.57
2023-04-02T11:29:49.986Z,1.40
2023-04-02T11:32:35.717Z,1.77
2023-04-02T11:35:27.083Z,2.33
2023-04-02T11:37:57.406Z,1.77
2023-04-02T11:40:58.732Z,1.60
2023-04-02T11:44:03.531Z,1.73
2023-04-02T11:46:45.265Z,2.23
2023-04-02T11:49:36.590Z,2.30
2023-04-02T11:52:12.082Z,1.57
2023-04-02T11:54:41.638Z,1.00
2023-04-02T11:57:23.842Z,1.37
2023-04-02T12:00:12.104Z,0.90
2023-04-02T12:02:59.424Z,0.83
2023-04-02T12:05:32.045Z,1.37
2023-04-02T12:08:23.814Z,2.07
2023-04-02T12:11:00.927Z,1.27
2023-04-02T12:13:52.008Z,1.40
2023-04-02T12:16:21.167Z,1.57
2023-04-02T12:18:54.154Z,1.13
2023-04-02T12:21:23.938Z,1.40
2023-04-02T12:23:55.094Z,1.07
2023-04-02T12:26:32.321Z,1.23
2023-04-02T12:29:15.923Z,1.30
2023-04-02T12:31:44.868Z,1.70
2023-04-02T12:34:18.088Z,1.10
2023-04-02T12:36:54.395Z,1.03
2023-04-02T12:39:23.495Z,0.87
2023-04-02T12:41:53.091Z,1.63
2023-04-02T12:44:25.146Z,1.23
2023-04-02T12:46:53.747Z,1.10
2023-04-02T12:49:36.820Z,0.80
2023-04-02T12:52:07.791Z,1.10
2023-04-02T12:54:43.447Z,1.63
2023-04-02T12:57:34.646Z,1.20
2023-04-02T13:00:06.248Z,0.70
2023-04-02T13:02:45.223Z,0.83
2023-04-02T13:05:14.557Z,1.80
2023-04-02T13:07:48.924Z,1.73
2023-04-02T13:10:25.547Z,0.97
2023-04-02T13:12:57.533Z,1.30
2023-04-02T13:15:28.726Z,1.87
2023-04-02T13:18:06.515Z,2.70
2023-04-02T13:20:38.521Z,1.50
2023-04-02T13:23:25.843Z,1.63
2023-04-02T13:25:53.928Z,1.63
2023-04-02T13:28:22.194Z,1.37
2023-04-02T13:30:51.036Z,0.97
2023-04-02T13:33:20.352Z,1.63
2023-04-02T13:35:49.964Z,0.80
2023-04-02T13:38:17.814Z,1.00
2023-04-02T13:40:46.984Z,0.57
2023-04-02T13:43:19.503Z,1.20
2023-04-02T13:45:51.252Z,0.97
2023-04-02T13:48:19.444Z,1.13
2023-04-02T13:50:48.936Z,0.83
2023-04-02T13:53:23.025Z,1.03
2023-04-02T13:55:52.373Z,1.10
2023-04-02T13:58:20.304Z,1.20
2023-04-02T14:00:48.856Z,0.90
2023-04-02T14:03:21.711Z,1.30
2023-04-02T14:06:00.006Z,2.33
2023-04-02T14:08:39.829Z,0.73
2023-04-02T14:11:22.450Z,1.37
2023-04-02T14:14:04.740Z,1.10
2023-04-02T14:16:44.419Z,0.90
2023-04-02T14:19:29.978Z,1.47
2023-04-02T14:22:10.336Z,2.13
2023-04-02T14:24:45.911Z,1.40
2023-04-02T14:27:25.628Z,1.00
2023-04-02T14:30:01.432Z,2.37
2023-04-02T14:32:38.278Z,1.93
2023-04-02T14:35:17.892Z,1.37
2023-04-02T14:37:55.882Z,1.13
2023-04-02T14:40:30.483Z,1.40
2023-04-02T14:43:03.082Z,1.90
2023-04-02T14:45:50.295Z,1.53
2023-04-02T14:48:31.323Z,1.30
2023-04-02T14:51:02.560Z,1.20
2023-04-02T14:53:37.444Z,1.20
2023-04-02T14:56:09.073Z,1.17
2023-04-02T14:58:42.138Z,1.30
2023-04-02T15:01:15.484Z,1.87
2023-04-02T15:03:49.183Z,2.97
2023-04-02T15:06:21.654Z,1.00
2023-04-02T15:09:08.304Z,2.93
2023-04-02T15:11:38.757Z,1.37
2023-04-02T15:14:13.643Z,2.13
2023-04-02T15:16:42.019Z,2.33
2023-04-02T15:19:14.653Z,1.70
2023-04-02T15:22:01.078Z,1.73
2023-04-02T15:24:43.388Z,1.70
2023-04-02T15:27:25.602Z,2.17
2023-04-02T15:30:02.495Z,1.63
2023-04-02T15:32:37.810Z,4.03
2023-04-02T15:35:20.483Z,1.70
2023-04-02T15:37:58.360Z,2.23
2023-04-02T15:40:50.520Z,2.03
2023-04-02T15:43:24.432Z,1.47
2023-04-02T15:46:00.491Z,1.60
2023-04-02T15:49:00.759Z,2.50
2023-04-02T15:51:51.369Z,1.80
2023-04-02T15:54:45.785Z,1.67
2023-04-02T15:57:25.669Z,1.17
2023-04-02T16:00:28.197Z,2.10
2023-04-02T16:03:21.078Z,1.80
2023-04-02T16:05:59.563Z,7.33
2023-04-02T16:08:38.098Z,1.73
2023-04-02T16:11:11.248Z,2.57
2023-04-02T16:13:42.636Z,2.07
2023-04-02T16:16:15.369Z,2.30
2023-04-02T16:18:51.132Z,1.90
2023-04-02T16:21:22.595Z,1.97
2023-04-02T16:23:51.048Z,3.13
2023-04-02T16:26:32.058Z,0.93
2023-04-02T16:29:15.860Z,1.90
2023-04-02T16:31:50.705Z,1.40
2023-04-02T16:34:27.387Z,1.37
2023-04-02T16:37:02.027Z,2.90
2023-04-02T16:39:37.288Z,1.63
2023-04-02T16:42:17.988Z,1.70
2023-04-02T16:44:58.963Z,2.03
2023-04-02T16:47:51.360Z,2.60
2023-04-02T16:50:31.635Z,2.90
2023-04-02T16:53:11.257Z,1.33
2023-04-02T16:55:52.947Z,2.73
2023-04-02T16:58:34.004Z,1.63
2023-04-02T17:01:11.519Z,1.30
2023-04-02T17:03:57.835Z,2.60
2023-04-02T17:06:38.949Z,1.60
2023-04-02T17:09:15.462Z,1.73
2023-04-02T17:11:49.151Z,2.83
2023-04-02T17:14:28.463Z,2.03
2023-04-02T17:17:02.995Z,2.70
2023-04-02T17:19:32.950Z,2.90
2023-04-02T17:22:03.026Z,2.20
2023-04-02T17:24:34.875Z,1.23
2023-04-02T17:27:09.453Z,1.30
2023-04-02T17:32:31.423Z,1.80
2023-04-02T17:35:13.208Z,2.53
2023-04-02T17:37:48.322Z,2.10
2023-04-02T17:40:26.255Z,1.57
2023-04-02T17:43:00.196Z,1.30
2023-04-02T17:45:35.964Z,1.63
2023-04-02T17:48:12.710Z,1.00
2023-04-02T17:50:52.036Z,1.57
2023-04-02T17:53:31.745Z,1.63
2023-04-02T17:56:14.064Z,1.73
2023-04-02T17:58:56.014Z,1.80
2023-04-02T18:01:29.706Z,2.53
2023-04-02T18:04:12.454Z,2.00
2023-04-02T18:06:46.662Z,1.50
2023-04-02T18:09:32.221Z,2.20
2023-04-02T18:12:13.481Z,1.50
2023-04-02T18:14:58.545Z,1.53
2023-04-02T18:17:36.080Z,2.57
2023-04-02T18:20:18.251Z,3.30
2023-04-02T18:22:54.309Z,3.53
2023-04-02T18:25:35.971Z,3.13
2023-04-02T18:28:22.665Z,1.83
2023-04-02T18:30:58.948Z,2.37
2023-04-02T18:33:41.927Z,3.13
2023-04-02T18:36:20.284Z,2.60
2023-04-02T18:38:54.933Z,2.27
2023-04-02T18:41:44.887Z,1.50
2023-04-02T18:44:30.688Z,1.93
2023-04-02T18:47:04.390Z,2.70
2023-04-02T18:49:39.328Z,2.53
2023-04-02T18:52:15.029Z,3.60
2023-04-02T18:54:46.674Z,1.80
2023-04-02T18:57:18.329Z,3.60
2023-04-02T18:59:50.462Z,2.90
2023-04-02T19:02:34.438Z,3.83
2023-04-02T19:05:05.778Z,3.73
2023-04-02T19:07:39.681Z,3.93
2023-04-02T19:10:21.542Z,2.00
2023-04-02T19:12:49.557Z,1.87
2023-04-02T19:15:20.501Z,3.00
2023-04-02T19:17:58.082Z,2.10
2023-04-02T19:20:37.704Z,1.67
2023-04-02T19:23:21.734Z,2.27
2023-04-02T19:26:01.738Z,1.30
2023-04-02T19:28:34.510Z,3.27
2023-04-02T19:31:30.066Z,1.80
2023-04-02T19:34:03.705Z,2.53
2023-04-02T19:36:48.716Z,1.00
2023-04-02T19:39:36.443Z,1.97
2023-04-02T19:42:09.917Z,2.27
2023-04-02T19:44:41.040Z,1.77
2023-04-02T19:47:10.197Z,1.70
2023-04-02T19:49:38.429Z,2.13
2023-04-02T19:52:06.501Z,2.37
2023-04-02T19:54:37.814Z,2.83
2023-04-02T19:57:06.746Z,1.80
2023-04-02T19:59:34.747Z,2.03
2023-04-02T20:02:06.645Z,1.53
2023-04-02T20:04:34.637Z,2.87
2023-04-02T20:07:02.854Z,1.90
2023-04-02T20:09:30.716Z,1.60
2023-04-02T20:12:00.160Z,1.90
2023-04-02T20:14:28.037Z,2.73
2023-04-02T20:16:56.271Z,1.90
2023-04-02T20:19:24.201Z,2.17
2023-04-02T20:21:52.461Z,2.27
2023-04-02T20:24:20.651Z,4.57
2023-04-02T20:26:48.614Z,2.33
2023-04-02T20:29:17.873Z,4.13
2023-04-02T20:31:45.987Z,2.27
2023-04-02T20:34:14.148Z,1.43
2023-04-02T20:36:42.468Z,1.60
2023-04-02T20:39:11.920Z,3.40
2023-04-02T20:41:40.000Z,2.63
2023-04-02T20:44:07.843Z,2.47
2023-04-02T20:46:38.002Z,1.70
2023-04-02T20:49:05.973Z,3.00
2023-04-02T20:51:34.464Z,1.13
2023-04-02T20:54:02.560Z,1.30
2023-04-02T20:56:30.701Z,1.83
2023-04-02T20:58:59.259Z,2.07
2023-04-02T21:01:29.201Z,1.67
2023-04-02T21:04:01.181Z,2.10
2023-04-02T21:06:31.431Z,3.03
2023-04-02T21:09:00.394Z,3.37
2023-04-02T21:11:29.116Z,2.80
2023-04-02T21:13:57.079Z,2.23
2023-04-02T21:16:28.378Z,3.40
2023-04-02T21:19:00.433Z,4.07
2023-04-02T21:21:29.026Z,4.73
2023-04-02T21:24:00.467Z,7.70
2023-04-02T21:26:29.614Z,7.23
2023-04-02T21:28:58.018Z,6.50
2023-04-02T21:31:27.824Z,4.40
2023-04-02T21:33:58.353Z,3.40
2023-04-02T21:36:29.886Z,3.40
2023-04-02T21:38:59.876Z,5.03
2023-04-02T21:41:29.923Z,5.47
2023-04-02T21:43:59.846Z,4.27
2023-04-02T21:46:30.396Z,6.10
2023-04-02T21:49:00.560Z,4.10
2023-04-02T21:51:31.387Z,4.93
2023-04-02T21:54:00.499Z,5.53
2023-04-02T21:56:30.533Z,5.57
2023-04-02T21:59:01.770Z,5.77
2023-04-02T22:01:32.173Z,5.10
2023-04-02T22:04:02.359Z,6.60
2023-04-02T22:06:33.742Z,4.87
2023-04-02T22:09:05.165Z,5.20
2023-04-02T22:11:36.176Z,5.03
2023-04-02T22:14:04.488Z,3.97
2023-04-02T22:16:34.254Z,4.60
2023-04-02T22:19:04.701Z,2.70
2023-04-02T22:21:34.453Z,5.23
2023-04-02T22:24:03.643Z,2.87
2023-04-02T22:26:32.603Z,2.70
2023-04-02T22:29:01.271Z,2.20
2023-04-02T22:31:31.397Z,2.57
2023-04-02T22:34:00.958Z,3.27
2023-04-02T22:36:30.117Z,2.50
2023-04-02T22:39:00.904Z,2.33
2023-04-02T22:41:31.918Z,2.60
2023-04-02T22:44:01.475Z,2.30
2023-04-02T22:46:30.014Z,2.07
2023-04-02T22:48:59.266Z,1.83
2023-04-02T22:51:28.479Z,2.20
2023-04-02T22:53:57.186Z,3.50
2023-04-02T22:56:29.688Z,4.33
2023-04-02T22:58:57.834Z,5.43
2023-04-02T23:01:28.502Z,7.30
2023-04-02T23:03:57.484Z,7.77
2023-04-02T23:06:26.313Z,8.20
2023-04-02T23:08:54.701Z,7.60
2023-04-02T23:11:24.574Z,8.20
2023-04-02T23:13:56.812Z,5.90
2023-04-02T23:16:27.055Z,4.83
2023-04-02T23:18:56.230Z,6.10
2023-04-02T23:21:25.003Z,6.37
2023-04-02T23:23:53.169Z,4.57
2023-04-02T23:26:23.267Z,3.77
2023-04-02T23:28:52.147Z,2.47
2023-04-02T23:31:23.122Z,2.87
2023-04-02T23:33:52.230Z,3.50
2023-04-02T23:36:23.204Z,3.87
2023-04-02T23:38:55.272Z,3.93
2023-04-02T23:41:24.983Z,2.60
2023-04-02T23:43:53.689Z,3.40
2023-04-02T23:46:23.218Z,2.43
2023-04-02T23:48:51.617Z,1.77
2023-04-02T23:51:19.941Z,2.43
2023-04-02T23:53:48.627Z,3.80
2023-04-02T23:56:17.449Z,3.23
2023-04-02T23:58:46.100Z,2.23
